»·PEaware :: SWA4343 KLAS-KLAX

SWA4343 :: KLAS-KLAX

FLIGHT INFORMATION

Flight Status: Arrived
Operator:
Southwest Airlines
More flights by this operator :: More flights under this callsign
Pilot: William B. (10095)
Aircraft: BOEING 737-700
(B737)
More flights by this aircraft type
Origin: KLAS McCarran Intl
United States
Destination: KLAX Los Angeles Intl
United States
More flights between these airports :: More routes between these airports
Route: +BOACH6 HEC RIIVR3
File this flight plan on PilotEdge
Remarks: P3d V3.4 PMDG 737NGX
Altitude:
(Current/Filed)
260ft
Speed:
(Current/Filed)
320kts
Departed: 13-Feb-17 07:37 PM
Arrived: 13-Feb-17 08:22 PM
Distance/Time
Traveled:
205nm/0:45
Distance/Time
To Go:
Arrived

Flight Plot

Page will automatically refresh every two minutes.


Map Options




Map Legend


Flown Route
Filed Route
Departure Airport
Arrival Airport
Navaid (VOR, NDB)
Fix

Horizontal Profiles

Position Reports

Time Latitude Longitude Heading Altitude Ground
Speed
13-Feb-17 19:18 36.080900 -115.146024 249 2122ft 0kts
13-Feb-17 19:19 36.080900 -115.146025 249 2122ft 0kts
13-Feb-17 19:20 36.080900 -115.146025 249 2122ft 0kts
13-Feb-17 19:21 36.080900 -115.146025 249 2122ft 0kts
13-Feb-17 19:22 36.080900 -115.146025 249 2122ft 0kts
13-Feb-17 19:23 36.080900 -115.146025 249 2123ft 0kts
13-Feb-17 19:24 36.080900 -115.146025 249 2123ft 0kts
13-Feb-17 19:25 36.080900 -115.146025 249 2123ft 0kts
13-Feb-17 19:26 36.080900 -115.146025 249 2123ft 0kts
13-Feb-17 19:27 36.081077 -115.145413 249 2123ft 2kts
13-Feb-17 19:28 36.081204 -115.144979 249 2123ft 0kts
13-Feb-17 19:29 36.081204 -115.144979 249 2123ft 0kts
13-Feb-17 19:30 36.081204 -115.144979 249 2123ft 0kts
13-Feb-17 19:31 36.079651 -115.144516 170 2123ft 28kts
13-Feb-17 19:32 36.078267 -115.140888 89 2123ft 15kts
13-Feb-17 19:33 36.078276 -115.135594 88 2123ft 24kts
13-Feb-17 19:34 36.078286 -115.130121 91 2123ft 11kts
13-Feb-17 19:35 36.077866 -115.122068 129 2122ft 19kts
13-Feb-17 19:36 36.077485 -115.121505 134 2123ft 0kts
13-Feb-17 19:37 36.076364 -115.125150 270 2123ft 68kts
13-Feb-17 19:38 36.075471 -115.180490 271 3447ft 220kts
13-Feb-17 19:39 36.060019 -115.264418 220 3977ft 276kts
13-Feb-17 19:40 35.987046 -115.293883 199 6448ft 285kts
13-Feb-17 19:41 35.907138 -115.309400 185 10167ft 303kts
13-Feb-17 19:42 35.813461 -115.310726 174 12064ft 358kts
13-Feb-17 19:43 35.712987 -115.299102 180 13017ft 363kts
13-Feb-17 19:44 35.630519 -115.360868 228 13026ft 358kts
13-Feb-17 19:45 35.561707 -115.451931 230 16559ft 371kts
13-Feb-17 19:46 35.490343 -115.547626 229 19969ft 390kts
13-Feb-17 19:47 35.417081 -115.644069 231 22749ft 408kts
13-Feb-17 19:48 35.339489 -115.748290 232 24536ft 415kts
13-Feb-17 19:49 35.261979 -115.851213 233 26116ft 409kts
13-Feb-17 19:50 35.186273 -115.951620 233 26120ft 404kts
13-Feb-17 19:51 35.108763 -116.051741 233 26124ft 402kts
13-Feb-17 19:52 35.033750 -116.152446 232 26129ft 403kts
13-Feb-17 19:53 34.962781 -116.246923 234 26137ft 402kts
13-Feb-17 19:54 34.886153 -116.346509 232 26141ft 403kts
13-Feb-17 19:55 34.809677 -116.446191 232 25926ft 403kts
13-Feb-17 19:56 34.723804 -116.532312 222 25148ft 410kts
13-Feb-17 19:57 34.634361 -116.618331 221 24350ft 413kts
13-Feb-17 19:58 34.543515 -116.701624 221 24166ft 413kts
13-Feb-17 19:59 34.452463 -116.787161 222 23303ft 414kts
13-Feb-17 20:00 34.361252 -116.872654 221 22204ft 416kts
13-Feb-17 20:01 34.270642 -116.957019 221 21129ft 418kts
13-Feb-17 20:02 34.178136 -117.042978 220 20029ft 421kts
13-Feb-17 20:03 34.098078 -117.134151 241 19098ft 356kts
13-Feb-17 20:04 34.053543 -117.233728 253 18264ft 330kts
13-Feb-17 20:05 34.039144 -117.340783 266 16677ft 323kts
13-Feb-17 20:06 34.029363 -117.445789 265 14916ft 308kts
13-Feb-17 20:07 34.019669 -117.547925 265 13226ft 302kts
13-Feb-17 20:08 34.010553 -117.644630 265 11717ft 274kts
13-Feb-17 20:09 34.001900 -117.731691 265 10209ft 251kts
13-Feb-17 20:10 33.994114 -117.812834 265 8722ft 237kts
13-Feb-17 20:11 33.987115 -117.887828 264 7507ft 209kts
13-Feb-17 20:12 33.980788 -117.953302 264 6448ft 189kts
13-Feb-17 20:13 33.974437 -118.016069 264 5553ft 186kts
13-Feb-17 20:14 33.968258 -118.077186 263 4654ft 181kts
13-Feb-17 20:15 33.963222 -118.131052 264 3834ft 164kts
13-Feb-17 20:16 33.958012 -118.182259 261 2963ft 146kts
13-Feb-17 20:17 33.953214 -118.228525 261 2242ft 130kts
13-Feb-17 20:18 33.948759 -118.271697 261 1827ft 126kts
13-Feb-17 20:19 33.944074 -118.316060 261 1253ft 132kts
13-Feb-17 20:20 33.939928 -118.356591 259 591ft 133kts
13-Feb-17 20:21 33.936220 -118.393778 259 134ft 111kts
13-Feb-17 20:22 33.935233 -118.407424 348 134ft 7kts
13-Feb-17 20:23 33.936112 -118.408728 300 134ft 1kts
13-Feb-17 20:24 33.937481 -118.409195 352 134ft 0kts
13-Feb-17 20:25 33.938889 -118.406867 82 134ft 10kts
13-Feb-17 20:26 33.938971 -118.406081 82 134ft 0kts
13-Feb-17 20:27 33.938765 -118.408049 264 134ft 10kts
13-Feb-17 20:28 33.938575 -118.410462 275 134ft 8kts
13-Feb-17 20:29 33.941423 -118.412202 352 134ft 15kts
13-Feb-17 20:30 33.943807 -118.412564 352 134ft 21kts
13-Feb-17 20:31 33.947370 -118.410333 82 134ft 20kts
13-Feb-17 20:32 33.947688 -118.406602 84 134ft 5kts
13-Feb-17 20:33 33.948282 -118.402101 76 134ft 14kts
13-Feb-17 20:34 33.947575 -118.400588 263 134ft 4kts
13-Feb-17 20:35 33.947563 -118.400761 265 134ft 0kts
13-Feb-17 20:36 33.947563 -118.400761 265 134ft 0kts

Navigation Log

Ident Type
Flight plan parsing failed, navigation log unavailable